Hlavní strana
METAR-TAF:

METAR-TAF

Letiště :

Fort Knox, Kentucky, Spojené státy americké

zeměpisná šířka: 37-54N, zeměpisná délka: 085-58W, výška: 230 m

Aktuální stav počasí

Zpráva byla vytvořena před 12 minutami, v 13:49 UTC
Severní vítr 4 kt
Teplota 3°C
Vlhkost vzduchu 60%
Tlak 1029 hPa
Viditelnost: 16.1 km
Jasno

METAR: KFTK 181349Z AUTO 35004KT 10SM CLR 03/M04 A3039 RMK AO2 SLP299 $

Čas: 10:01 (14:01 UTC)

Předpověď počasí

Zpráva byla vytvořena před 5 hodinami a 1 minutami, v 09:00 UTC
Předpověď platná od 18 v 09 UTC do 19 v 15 UTC
Severní vítr 6 kt
Viditelnost 10 km a více
Jasno

TAF: KFTK 180900Z 1809/1915 35006KT 9999 SKC QNH3030INS TX08/1820Z TNM01/1811Z

Stav a předpovědi počasí z více než 4 000 letišť (zprávy METAR a TAF).

Červené a žluté tečky na mapě představují dostupné meteorologické stanice.

Když kurzor umístíte na tečku, zobrazí se název stanice.

Pak kliknutím zobrazíte stav a předpověď počasí.

Chcete-li změnit mapu, kliknutím na zelené tlačítko se znaménkem +mapu přiblížíte, kliknutím na zelené tlačítko se znaménkem – mapu oddálíte a kliknutím na zelené šipky přejdete na sousední mapy.


METAR-TAF: